createdAt,value
2018-04-13T00:00:09.078Z,56.50
2018-04-13T00:02:36.567Z,56.07
2018-04-13T00:05:04.032Z,56.15
2018-04-13T00:07:31.523Z,56.63
2018-04-13T00:09:59.013Z,56.33
2018-04-13T00:12:26.495Z,56.34
2018-04-13T00:14:53.963Z,56.42
2018-04-13T00:17:21.494Z,56.37
2018-04-13T00:19:48.966Z,56.13
2018-04-13T00:22:16.588Z,56.69
2018-04-13T00:24:44.078Z,56.27
2018-04-13T00:27:11.775Z,56.72
2018-04-13T00:29:39.250Z,55.56
2018-04-13T00:32:06.750Z,55.44
2018-04-13T00:34:34.319Z,54.56
2018-04-13T00:37:01.800Z,53.46
2018-04-13T00:39:29.606Z,52.48
2018-04-13T00:41:57.072Z,51.81
2018-04-13T00:44:24.564Z,51.37
2018-04-13T00:46:52.027Z,51.50
2018-04-13T00:49:19.507Z,51.86
2018-04-13T00:51:46.971Z,51.84
2018-04-13T00:54:14.459Z,51.90
2018-04-13T00:56:42.219Z,52.38
2018-04-13T00:59:09.780Z,53.03
2018-04-13T01:01:37.263Z,53.16
2018-04-13T01:06:27.812Z,54.56
2018-04-13T01:08:55.301Z,55.18
2018-04-13T01:11:22.845Z,55.39
2018-04-13T01:13:50.771Z,55.61
2018-04-13T01:16:18.243Z,55.91
2018-04-13T01:18:45.804Z,55.96
2018-04-13T01:21:13.280Z,56.60
2018-04-13T01:23:40.820Z,57.47
2018-04-13T01:26:08.376Z,57.44
2018-04-13T01:28:35.933Z,58.10
2018-04-13T01:31:03.405Z,58.03
2018-04-13T01:33:31.154Z,57.73
2018-04-13T01:35:58.714Z,58.14
2018-04-13T01:38:26.270Z,59.01
2018-04-13T01:40:53.773Z,59.96
2018-04-13T01:43:21.260Z,59.35
2018-04-13T01:45:48.722Z,59.26
2018-04-13T01:48:16.211Z,59.67
2018-04-13T01:50:43.678Z,59.52
2018-04-13T01:53:11.143Z,59.72
2018-04-13T01:55:38.682Z,59.69
2018-04-13T01:58:06.142Z,60.23
2018-04-13T02:00:33.627Z,60.40
2018-04-13T02:03:01.489Z,60.44
2018-04-13T02:05:28.991Z,60.95
2018-04-13T02:07:56.474Z,60.89
2018-04-13T02:10:23.989Z,61.11
2018-04-13T02:12:51.539Z,60.68
2018-04-13T02:15:19.028Z,60.98
2018-04-13T02:17:46.485Z,60.86
2018-04-13T02:20:13.975Z,60.20
2018-04-13T02:22:41.443Z,60.41
2018-04-13T02:25:08.942Z,59.51
2018-04-13T02:27:36.473Z,59.93
2018-04-13T02:30:03.971Z,59.94
2018-04-13T02:32:31.470Z,59.99
2018-04-13T02:34:58.964Z,59.64
2018-04-13T02:37:38.467Z,60.01
2018-04-13T02:40:05.955Z,57.81
2018-04-13T02:42:33.419Z,57.95
2018-04-13T02:45:00.943Z,58.25
2018-04-13T02:47:28.478Z,57.91
2018-04-13T02:49:55.967Z,57.25
2018-04-13T02:52:23.444Z,57.17
2018-04-13T02:54:50.969Z,56.59
2018-04-13T02:57:18.502Z,56.50
2018-04-13T02:59:46.091Z,56.66
2018-04-13T03:02:13.731Z,56.98
2018-04-13T03:04:41.215Z,56.03
2018-04-13T03:07:08.711Z,56.35
2018-04-13T03:09:36.175Z,56.39
2018-04-13T03:12:03.671Z,56.84
2018-04-13T03:14:31.134Z,56.58
2018-04-13T03:16:58.628Z,56.74
2018-04-13T03:19:26.170Z,57.20
2018-04-13T03:21:53.875Z,56.64
2018-04-13T03:24:21.355Z,56.06
2018-04-13T03:26:48.847Z,56.22
2018-04-13T03:29:16.318Z,56.22
2018-04-13T03:31:43.855Z,56.36
2018-04-13T03:34:11.330Z,56.37
2018-04-13T03:36:38.824Z,56.59
2018-04-13T03:39:06.305Z,56.02
2018-04-13T03:41:33.796Z,55.98
2018-04-13T03:44:01.351Z,56.11
2018-04-13T03:46:28.850Z,56.22
2018-04-13T03:48:56.315Z,56.20
2018-04-13T03:51:23.827Z,56.20
2018-04-13T03:53:51.307Z,56.36
2018-04-13T03:56:18.842Z,56.50
2018-04-13T03:58:46.319Z,56.82
2018-04-13T04:01:13.816Z,56.56
2018-04-13T04:03:41.283Z,57.27
2018-04-13T04:06:08.808Z,57.07
2018-04-13T04:08:36.285Z,57.19
2018-04-13T04:11:03.818Z,57.37
2018-04-13T04:13:31.353Z,57.29
2018-04-13T04:15:58.839Z,57.32
2018-04-13T04:18:26.324Z,57.68
2018-04-13T04:24:07.824Z,57.98
2018-04-13T04:26:49.212Z,58.20
2018-04-13T04:29:16.720Z,58.73
2018-04-13T04:31:44.207Z,58.25
2018-04-13T04:34:11.733Z,58.33
2018-04-13T04:36:39.297Z,58.82
2018-04-13T04:39:06.763Z,58.76
2018-04-13T04:41:34.315Z,58.65
2018-04-13T04:44:01.907Z,58.65
2018-04-13T04:46:29.372Z,58.67
2018-04-13T04:48:56.887Z,58.71
2018-04-13T04:51:24.360Z,58.69
2018-04-13T04:53:51.907Z,58.73
2018-04-13T04:56:19.390Z,58.44
2018-04-13T04:58:46.879Z,58.85
2018-04-13T05:01:14.356Z,58.91
2018-04-13T05:03:41.843Z,58.72
2018-04-13T05:06:09.398Z,58.96
2018-04-13T05:08:36.899Z,58.98
2018-04-13T05:11:04.458Z,58.48
2018-04-13T05:13:31.947Z,58.90
2018-04-13T05:15:59.427Z,58.64
2018-04-13T05:18:26.939Z,58.31
2018-04-13T05:20:54.444Z,58.52
2018-04-13T05:23:21.936Z,58.47
2018-04-13T05:25:49.399Z,58.39
2018-04-13T05:28:16.892Z,57.92
2018-04-13T05:30:44.381Z,57.76
2018-04-13T05:33:11.880Z,57.33
2018-04-13T05:35:39.403Z,57.78
2018-04-13T05:38:06.965Z,57.31
2018-04-13T05:40:34.630Z,56.88
2018-04-13T05:43:02.123Z,56.99
2018-04-13T05:45:29.791Z,56.75
2018-04-13T05:47:57.267Z,56.93
2018-04-13T05:50:24.763Z,56.78
2018-04-13T05:52:52.244Z,56.47
2018-04-13T05:55:19.744Z,55.46
2018-04-13T05:57:47.204Z,56.13
2018-04-13T06:00:14.738Z,56.03
2018-04-13T06:02:42.255Z,56.35
2018-04-13T06:05:09.751Z,56.10
2018-04-13T06:07:37.232Z,55.97
2018-04-13T06:10:04.748Z,55.94
2018-04-13T06:12:32.237Z,56.37
2018-04-13T06:14:59.790Z,55.62
2018-04-13T06:17:27.291Z,55.52
2018-04-13T06:19:54.786Z,56.01
2018-04-13T06:22:22.252Z,56.15
2018-04-13T06:24:49.755Z,55.98
2018-04-13T06:27:17.237Z,56.04
2018-04-13T06:29:44.835Z,56.11
2018-04-13T06:32:12.334Z,56.62
2018-04-13T06:34:39.820Z,56.03
2018-04-13T06:37:07.411Z,56.21
2018-04-13T06:39:34.899Z,56.54
2018-04-13T06:42:02.442Z,56.36
2018-04-13T06:44:29.962Z,56.45
2018-04-13T06:46:57.486Z,56.96
2018-04-13T06:49:24.990Z,57.40
2018-04-13T06:51:52.465Z,57.34
2018-04-13T06:54:19.983Z,57.01
2018-04-13T06:56:47.536Z,57.41
2018-04-13T06:59:15.007Z,58.23
2018-04-13T07:01:42.525Z,58.75
2018-04-13T07:04:09.996Z,59.25
2018-04-13T07:06:37.485Z,60.27
2018-04-13T07:09:05.720Z,61.62
2018-04-13T07:11:33.227Z,62.41
2018-04-13T07:14:00.743Z,62.99
2018-04-13T07:16:28.231Z,63.85
2018-04-13T07:18:55.803Z,65.46
2018-04-13T07:21:23.302Z,68.09
2018-04-13T07:23:50.800Z,69.64
2018-04-13T07:26:18.297Z,73.59
2018-04-13T07:28:45.783Z,74.14
2018-04-13T07:31:13.275Z,73.62
2018-04-13T07:33:41.024Z,75.45
2018-04-13T07:36:08.256Z,76.59
2018-04-13T07:38:35.756Z,75.16
2018-04-13T07:41:03.250Z,75.89
2018-04-13T07:43:31.408Z,75.98
2018-04-13T07:45:58.218Z,76.63
2018-04-13T07:48:25.683Z,77.09
2018-04-13T07:50:53.568Z,75.75
2018-04-13T07:53:21.032Z,74.34
2018-04-13T07:55:48.532Z,75.09
2018-04-13T07:58:15.998Z,75.65
2018-04-13T08:00:43.479Z,73.96
2018-04-13T08:03:10.971Z,74.18
2018-04-13T08:05:38.439Z,73.20
2018-04-13T08:08:05.959Z,73.44
2018-04-13T08:10:33.464Z,73.48
2018-04-13T08:13:00.950Z,68.35
2018-04-13T08:15:28.416Z,68.94
2018-04-13T08:17:55.963Z,70.57
2018-04-13T08:20:23.403Z,68.07
2018-04-13T08:22:50.904Z,68.17
2018-04-13T08:25:18.474Z,66.40
2018-04-13T08:27:45.963Z,66.07
2018-04-13T08:30:13.510Z,65.64
2018-04-13T08:32:41.219Z,64.52
2018-04-13T08:35:08.695Z,65.18
2018-04-13T08:37:36.179Z,64.31
2018-04-13T08:40:03.643Z,66.32
2018-04-13T08:42:31.144Z,65.56
2018-04-13T08:44:58.680Z,65.20
2018-04-13T08:47:26.160Z,62.58
2018-04-13T08:49:53.653Z,62.26
2018-04-13T08:52:21.228Z,61.37
2018-04-13T08:54:48.694Z,62.49
2018-04-13T08:57:16.183Z,64.85
2018-04-13T08:59:43.666Z,61.14
2018-04-13T09:02:11.167Z,61.07
2018-04-13T09:04:38.647Z,62.83
2018-04-13T09:07:06.173Z,61.93
2018-04-13T09:09:33.704Z,60.82
2018-04-13T09:12:01.259Z,59.66
2018-04-13T09:14:39.709Z,61.09
2018-04-13T09:17:07.208Z,60.66
2018-04-13T09:19:34.748Z,58.84
2018-04-13T09:22:02.259Z,58.53
2018-04-13T09:24:29.777Z,57.81
2018-04-13T09:26:57.287Z,58.87
2018-04-13T09:29:24.855Z,59.33
2018-04-13T09:31:52.367Z,58.50
2018-04-13T09:34:19.862Z,55.82
2018-04-13T09:36:47.326Z,54.00
2018-04-13T09:39:15.200Z,54.66
2018-04-13T09:41:42.907Z,53.14
2018-04-13T09:44:10.454Z,51.29
2018-04-13T09:46:38.018Z,51.89
2018-04-13T09:49:05.544Z,51.09
2018-04-13T09:51:33.028Z,52.13
2018-04-13T09:54:00.546Z,50.18
2018-04-13T09:56:28.050Z,49.28
2018-04-13T09:58:56.122Z,50.24
2018-04-13T10:01:23.598Z,50.47
2018-04-13T10:07:02.113Z,44.94
2018-04-13T10:09:29.638Z,44.17
2018-04-13T10:11:57.108Z,44.88
2018-04-13T10:14:24.607Z,44.75
2018-04-13T10:16:52.215Z,44.14
2018-04-13T10:19:19.727Z,44.57
2018-04-13T10:21:47.215Z,44.14
2018-04-13T10:24:14.876Z,44.62
2018-04-13T10:26:42.390Z,40.26
2018-04-13T10:29:09.952Z,40.20
2018-04-13T10:31:37.488Z,40.08
2018-04-13T10:34:04.976Z,40.44
2018-04-13T10:36:32.483Z,41.09
2018-04-13T10:38:59.950Z,38.16
2018-04-13T10:41:27.447Z,36.72
2018-04-13T10:43:54.927Z,33.87
2018-04-13T10:46:22.444Z,35.50
2018-04-13T10:48:49.926Z,33.33
2018-04-13T10:51:17.444Z,34.01
2018-04-13T10:53:44.923Z,29.87
2018-04-13T10:56:12.419Z,30.69
2018-04-13T10:58:39.917Z,31.22
2018-04-13T11:01:07.404Z,30.58
2018-04-13T11:03:34.908Z,29.55
2018-04-13T11:06:02.428Z,29.00
2018-04-13T11:08:29.924Z,29.85
2018-04-13T11:10:57.416Z,28.55
2018-04-13T11:13:24.898Z,26.81
2018-04-13T11:15:52.451Z,26.40
2018-04-13T11:18:19.923Z,24.96
2018-04-13T11:20:47.439Z,23.30
2018-04-13T11:23:14.906Z,22.45
2018-04-13T11:25:42.411Z,24.36
2018-04-13T11:28:09.933Z,22.97
2018-04-13T11:30:37.416Z,22.73
2018-04-13T11:33:04.944Z,23.20
2018-04-13T11:35:32.416Z,22.08
2018-04-13T11:37:59.911Z,21.33
2018-04-13T11:40:27.398Z,20.30
2018-04-13T11:42:54.897Z,20.55
2018-04-13T11:45:22.372Z,23.32
2018-04-13T11:47:49.874Z,25.08
2018-04-13T11:50:17.375Z,25.68
2018-04-13T11:52:44.870Z,27.21
2018-04-13T11:55:12.458Z,25.43
2018-04-13T11:57:40.015Z,25.85
2018-04-13T12:00:07.491Z,26.26
2018-04-13T12:02:34.996Z,26.89
2018-04-13T12:05:02.487Z,26.81
2018-04-13T12:07:30.015Z,22.18
2018-04-13T12:09:57.488Z,23.53
2018-04-13T12:12:24.984Z,22.41
2018-04-13T12:14:52.467Z,23.38
2018-04-13T12:17:19.967Z,20.13
2018-04-13T12:19:47.436Z,19.62
2018-04-13T12:22:14.989Z,16.86
2018-04-13T12:24:42.444Z,16.22
2018-04-13T12:27:09.992Z,13.50
2018-04-13T12:29:37.467Z,15.94
2018-04-13T12:32:04.959Z,16.27
2018-04-13T12:34:32.491Z,13.97
2018-04-13T12:37:00.028Z,15.27
2018-04-13T12:39:28.502Z,14.46
2018-04-13T12:41:55.995Z,14.08
2018-04-13T12:44:23.478Z,16.25
2018-04-13T12:46:50.944Z,13.66
2018-04-13T12:49:18.478Z,13.40
2018-04-13T12:51:46.070Z,14.47
2018-04-13T12:54:13.617Z,17.70
2018-04-13T12:56:41.148Z,22.26
2018-04-13T12:59:08.672Z,20.42
2018-04-13T13:01:36.138Z,21.41
2018-04-13T13:04:03.828Z,25.18
2018-04-13T13:06:31.320Z,28.59
2018-04-13T13:08:58.882Z,30.20
2018-04-13T13:11:26.361Z,31.44
2018-04-13T13:13:54.080Z,31.93
2018-04-13T13:16:21.632Z,32.85
2018-04-13T13:18:49.177Z,35.01
2018-04-13T13:21:16.680Z,34.69
2018-04-13T13:23:44.213Z,32.41
2018-04-13T13:26:11.688Z,27.14
2018-04-13T13:28:39.175Z,23.65
2018-04-13T13:31:06.687Z,16.81
2018-04-13T13:33:34.185Z,13.65
2018-04-13T13:36:01.663Z,12.71
2018-04-13T13:38:29.159Z,12.94
2018-04-13T13:40:56.716Z,11.15
2018-04-13T13:43:24.208Z,11.00
2018-04-13T13:45:51.679Z,10.78
2018-04-13T13:48:19.222Z,11.78
2018-04-13T13:50:46.704Z,11.37
2018-04-13T13:53:14.187Z,11.31
2018-04-13T13:55:41.679Z,10.63
2018-04-13T13:58:09.222Z,9.71
2018-04-13T14:00:36.755Z,10.93
2018-04-13T14:03:04.214Z,12.33
2018-04-13T14:05:31.736Z,10.46
2018-04-13T14:07:59.288Z,10.42
2018-04-13T14:10:26.824Z,11.97
2018-04-13T14:12:54.292Z,11.57
2018-04-13T14:15:21.804Z,11.29
2018-04-13T14:17:49.264Z,10.06
2018-04-13T14:20:16.763Z,10.44
2018-04-13T14:22:44.383Z,10.80
2018-04-13T14:25:11.883Z,10.29
2018-04-13T14:27:39.352Z,10.92
2018-04-13T14:30:06.868Z,10.51
2018-04-13T14:32:34.333Z,9.51
2018-04-13T14:35:01.838Z,10.38
2018-04-13T14:37:29.397Z,11.07
2018-04-13T14:39:56.900Z,10.81
2018-04-13T14:42:24.391Z,11.85
2018-04-13T14:44:51.973Z,12.92
2018-04-13T14:47:19.503Z,12.73
2018-04-13T14:49:46.993Z,13.91
2018-04-13T14:52:14.471Z,13.72
2018-04-13T14:54:41.962Z,13.46
2018-04-13T14:57:09.468Z,13.23
2018-04-13T14:59:37.101Z,14.62
2018-04-13T15:02:04.732Z,16.05
2018-04-13T15:04:32.207Z,19.48
2018-04-13T15:06:59.783Z,19.95
2018-04-13T15:09:27.272Z,20.19
2018-04-13T15:11:54.824Z,24.68
2018-04-13T15:14:22.290Z,26.25
2018-04-13T15:16:49.805Z,26.57
2018-04-13T15:19:17.307Z,26.27
2018-04-13T15:21:44.810Z,22.96
2018-04-13T15:24:12.419Z,21.03
2018-04-13T15:26:39.940Z,18.89
2018-04-13T15:29:07.419Z,16.47
2018-04-13T15:31:34.954Z,15.40
2018-04-13T15:34:02.426Z,15.70
2018-04-13T15:36:29.923Z,17.02
2018-04-13T15:38:57.411Z,20.12
2018-04-13T15:41:24.919Z,20.23
2018-04-13T15:43:52.503Z,20.44
2018-04-13T15:46:20.010Z,20.20
2018-04-13T15:48:47.501Z,21.98
2018-04-13T15:51:14.992Z,23.65
2018-04-13T15:53:42.459Z,25.50
2018-04-13T15:56:09.980Z,26.19
2018-04-13T15:58:37.448Z,27.93
2018-04-13T16:01:04.947Z,29.08
2018-04-13T16:03:32.474Z,30.31
2018-04-13T16:05:59.943Z,30.83
2018-04-13T16:08:27.574Z,31.40
2018-04-13T16:10:55.057Z,34.95
2018-04-13T16:13:23.000Z,37.32
2018-04-13T16:15:50.538Z,38.58
2018-04-13T16:18:18.047Z,39.58
2018-04-13T16:20:45.579Z,39.97
2018-04-13T16:23:13.076Z,39.56
2018-04-13T16:25:40.544Z,39.29
2018-04-13T16:28:08.119Z,39.21
2018-04-13T16:30:35.675Z,36.97
2018-04-13T16:33:03.177Z,35.18
2018-04-13T16:35:30.699Z,25.63
2018-04-13T16:37:58.188Z,20.81
2018-04-13T16:40:25.749Z,20.37
2018-04-13T16:42:53.273Z,24.76
2018-04-13T16:45:20.826Z,25.87
2018-04-13T16:47:48.469Z,23.74
2018-04-13T16:50:15.955Z,21.01
2018-04-13T16:52:43.464Z,21.05
2018-04-13T16:55:10.939Z,21.66
2018-04-13T16:57:38.567Z,25.38
2018-04-13T17:00:06.038Z,27.83
2018-04-13T17:02:33.543Z,30.32
2018-04-13T17:05:01.041Z,31.18
2018-04-13T17:07:28.527Z,32.42
2018-04-13T17:09:56.021Z,34.33
2018-04-13T17:12:23.527Z,34.75
2018-04-13T17:14:51.023Z,35.44
2018-04-13T17:17:18.597Z,35.50
2018-04-13T17:19:46.075Z,35.30
2018-04-13T17:22:13.547Z,36.10
2018-04-13T17:24:41.048Z,36.59
2018-04-13T17:27:08.512Z,37.10
2018-04-13T17:29:36.001Z,36.65
2018-04-13T17:32:03.558Z,36.35
2018-04-13T17:34:31.103Z,36.49
2018-04-13T17:36:58.572Z,37.38
2018-04-13T17:39:26.100Z,39.09
2018-04-13T17:41:53.571Z,37.77
2018-04-13T17:44:21.072Z,38.32
2018-04-13T17:46:48.619Z,38.94
2018-04-13T17:49:16.116Z,39.82
2018-04-13T17:51:43.606Z,40.61
2018-04-13T17:54:11.103Z,40.96
2018-04-13T17:56:38.584Z,41.36
2018-04-13T17:59:06.108Z,42.18
2018-04-13T18:01:33.591Z,41.51
2018-04-13T18:04:01.098Z,41.09
2018-04-13T18:06:28.702Z,41.74
2018-04-13T18:08:56.207Z,42.29
2018-04-13T18:11:23.723Z,42.94
2018-04-13T18:13:51.226Z,42.30
2018-04-13T18:16:18.707Z,43.04
2018-04-13T18:18:46.267Z,44.03
2018-04-13T18:21:13.781Z,43.11
2018-04-13T18:23:41.256Z,43.48
2018-04-13T18:26:08.771Z,44.28
2018-04-13T18:28:36.238Z,43.75
2018-04-13T18:31:03.772Z,44.97
2018-04-13T18:33:31.265Z,45.21
2018-04-13T18:35:58.786Z,45.94
2018-04-13T18:38:26.278Z,46.94
2018-04-13T18:40:53.815Z,47.56
2018-04-13T18:43:21.324Z,47.33
2018-04-13T18:45:48.812Z,47.85
2018-04-13T18:48:16.291Z,47.94
2018-04-13T18:50:43.787Z,47.96
2018-04-13T18:53:11.251Z,48.16
2018-04-13T18:55:38.781Z,48.67
2018-04-13T18:58:06.283Z,49.72
2018-04-13T19:00:33.788Z,49.65
2018-04-13T19:03:01.255Z,50.51
2018-04-13T19:05:28.759Z,50.24
2018-04-13T19:07:56.224Z,50.53
2018-04-13T19:10:23.787Z,50.95
2018-04-13T19:12:51.273Z,51.27
2018-04-13T19:15:18.807Z,51.87
2018-04-13T19:17:46.276Z,51.94
2018-04-13T19:20:13.787Z,52.48
2018-04-13T19:22:41.259Z,54.17
2018-04-13T19:25:08.759Z,53.77
2018-04-13T19:27:36.302Z,52.93
2018-04-13T19:30:03.792Z,52.53
2018-04-13T19:32:31.281Z,53.30
2018-04-13T19:34:58.785Z,53.92
2018-04-13T19:37:26.256Z,52.74
2018-04-13T19:39:54.724Z,53.17
2018-04-13T19:42:22.219Z,53.35
2018-04-13T19:44:49.694Z,53.75
2018-04-13T19:47:17.184Z,54.53
2018-04-13T19:49:44.649Z,53.50
2018-04-13T19:52:12.156Z,54.39
2018-04-13T19:54:39.642Z,55.30
2018-04-13T19:57:07.143Z,55.39
2018-04-13T19:59:34.640Z,54.38
2018-04-13T20:02:03.079Z,54.54
2018-04-13T20:04:30.548Z,54.45
2018-04-13T20:06:58.299Z,55.12
2018-04-13T20:09:25.839Z,54.88
2018-04-13T20:11:53.334Z,55.33
2018-04-13T20:14:25.813Z,55.53
2018-04-13T20:16:53.334Z,56.63
2018-04-13T20:19:20.823Z,55.11
2018-04-13T20:21:48.320Z,57.21
2018-04-13T20:24:15.803Z,56.88
2018-04-13T20:26:43.303Z,56.96
2018-04-13T20:29:10.782Z,56.98
2018-04-13T20:31:38.295Z,56.29
2018-04-13T20:34:05.763Z,55.21
2018-04-13T20:36:33.328Z,55.87
2018-04-13T20:39:01.757Z,54.81
2018-04-13T20:41:29.260Z,53.49
2018-04-13T20:43:56.798Z,53.47
2018-04-13T20:46:24.267Z,53.50
2018-04-13T20:48:51.786Z,53.98
2018-04-13T20:51:19.272Z,53.37
2018-04-13T20:53:46.762Z,53.68
2018-04-13T20:56:14.243Z,53.16
2018-04-13T20:58:41.732Z,54.15
2018-04-13T21:01:09.236Z,53.81
2018-04-13T21:03:37.870Z,53.47
2018-04-13T21:06:05.499Z,53.74
2018-04-13T21:08:33.028Z,54.35
2018-04-13T21:11:00.523Z,54.39
2018-04-13T21:13:28.015Z,55.25
2018-04-13T21:15:55.488Z,55.40
2018-04-13T21:18:22.983Z,55.76
2018-04-13T21:20:50.452Z,56.39
2018-04-13T21:23:17.947Z,56.98
2018-04-13T21:25:45.416Z,56.37
2018-04-13T21:28:12.903Z,55.96
2018-04-13T21:30:40.394Z,54.99
2018-04-13T21:33:07.903Z,56.02
2018-04-13T21:35:35.404Z,57.58
2018-04-13T21:38:02.899Z,57.13
2018-04-13T21:40:30.383Z,58.07
2018-04-13T21:42:57.907Z,58.05
2018-04-13T21:45:25.393Z,58.65
2018-04-13T21:47:52.920Z,58.59
2018-04-13T21:50:20.460Z,59.43
2018-04-13T21:52:48.329Z,59.79
2018-04-13T21:55:15.849Z,60.80
2018-04-13T21:57:43.504Z,60.63
2018-04-13T22:00:10.995Z,61.57
2018-04-13T22:02:38.467Z,61.15
2018-04-13T22:05:05.960Z,60.15
2018-04-13T22:07:33.424Z,61.22
2018-04-13T22:10:00.926Z,60.39
2018-04-13T22:12:40.138Z,59.80
2018-04-13T22:15:07.631Z,61.82
2018-04-13T22:17:35.091Z,61.15
2018-04-13T22:20:02.642Z,61.10
2018-04-13T22:22:30.120Z,61.30
2018-04-13T22:24:57.629Z,62.00
2018-04-13T22:27:25.105Z,62.51
2018-04-13T22:29:52.614Z,63.28
2018-04-13T22:32:20.082Z,64.38
2018-04-13T22:34:47.602Z,64.37
2018-04-13T22:37:15.074Z,64.66
2018-04-13T22:39:42.600Z,64.24
2018-04-13T22:42:10.141Z,64.30
2018-04-13T22:44:37.637Z,64.71
2018-04-13T22:47:05.118Z,65.37
2018-04-13T22:49:32.624Z,65.37
2018-04-13T22:52:00.178Z,66.08
2018-04-13T22:54:27.652Z,66.76
2018-04-13T22:56:55.147Z,67.15
2018-04-13T22:59:22.646Z,68.64
2018-04-13T23:01:50.134Z,69.35
2018-04-13T23:04:17.824Z,68.97
2018-04-13T23:06:45.325Z,69.10
2018-04-13T23:09:12.790Z,69.71
2018-04-13T23:11:40.290Z,70.53
2018-04-13T23:14:07.767Z,70.03
2018-04-13T23:16:35.259Z,69.60
2018-04-13T23:19:02.767Z,70.13
2018-04-13T23:21:30.253Z,69.27
2018-04-13T23:23:57.728Z,69.42
2018-04-13T23:26:25.216Z,70.44
2018-04-13T23:28:52.858Z,70.89
2018-04-13T23:31:20.422Z,70.78
2018-04-13T23:33:47.984Z,71.16
2018-04-13T23:36:15.475Z,71.45
2018-04-13T23:38:42.941Z,71.41
2018-04-13T23:41:10.988Z,71.81
2018-04-13T23:43:38.449Z,72.69
2018-04-13T23:46:05.991Z,71.90
2018-04-13T23:48:34.388Z,72.06
2018-04-13T23:51:01.876Z,71.97
2018-04-13T23:53:29.395Z,71.43
2018-04-13T23:55:56.879Z,72.20
2018-04-13T23:58:24.470Z,71.91
